KNIP/NIP METAR and TAF weather

Enter ICAO airport designator
Station Type Date Time Source
KNIP METAR 2019/05/26 22:53 UTC NOAA

KNIP 262253Z 11012KT 10SM FEW060 34/22 A3005 RMK AO2 SLP171 T03390217


Station Type Date Time Source
KNIP Decoded METAR 2019/05/26 22:53 UTC NOAA

JACKSONVILLE NAVAL AIR STN, FL, United States (KNIP) 30-14N 81-40W 8M
May 26, 2019 - 06:53 PM EDT / 2019.05.26 2253 UTC
Wind: from the ESE (110 degrees) at 14 MPH (12 KT):0
Visibility: 10 mile(s):0
Sky conditions: mostly clear
Temperature: 93.0 F (33.9 C)
Heat index: 100.0 F (37.8 C):1
Dew Point: 71.1 F (21.7 C)
Relative Humidity: 49%
Pressure (altimeter): 30.05 in. Hg (1017 hPa)
ob: KNIP 262253Z 11012KT 10SM FEW060 34/22 A3005 RMK AO2 SLP171 T03390217
cycle: 23

Station Type Date Time Source
KNIP TAF 2019/05/26 23:03 UTC NOAA

TAF KNIP 2623/2723 15010KT 9999 FEW280 QNH2993INS
BECMG 2707/2909 20012KT QNH2996INS AUTOMATED SENSOR METWATCH 2704 TIL 2804 T27/2709Z T38/2722Z FN00205

Example: see airport list